Pratica Di Mare, Italia

06:50 AM CEST del 20 Agosto 2014 (GMT +0200)
Torvajanica Alta, Pomezia | Change Station
CLOSE
Current Station
Stazione meteo personale
Location: Torvaianica Alta, LAZIO
Altitudine: 128 ft
Stazioni meteo nelle vicinanze

Alt. 128 ft 41.63 °N, 12.49 °E | Updated 9 seconds ago

Partly Cloudy
Parzialmente nuvoloso
72.9 °F
Sembra 77 °F
N
2.7
Vento Variabile Vento da ENE
Gusts 4.7 mph

Oggi
Massima -- | Minima -- °F
--% Possibilità di precip.
Ieri
Massima -- | Minima -- °F
Precip. -- in
6:23 AM 8:02 PM
Luna calante, 24% visible
Pressione 29.92 in
Visibilità 6.2 miglia
Nuvole Alcuni 4000 ft
Indice di calore 77 °F
Punto di rugiada 57 °F
Umidità 57%
Piovosità 0.00 in
Spessore del manto nevoso Non disponibile.
Raggi UV 0 fuori da 12
Polline Non disponibile.
Qualità dell'aria Non disponibile.
Flu Activity Non disponibile.
METAR LIRF 200420Z 08006KT 9999 FEW040 20/15 Q1013 NOSIG

More Conditions Fewer Conditions

Pressione 29.92 in
Visibilità 6.2 miglia
Nuvole Alcuni 4000 ft
Indice di calore 77 °F
Punto di rugiada 57 °F
Umidità 57%
Piovosità 0.00 in
Spessore del manto nevoso Non disponibile.
Raggi UV 0 fuori da 12
Polline Non disponibile.
Qualità dell'aria Non disponibile.
Flu Activity Non disponibile.
METAR LIRF 200420Z 08006KT 9999 FEW040 20/15 Q1013 NOSIG

More Conditions Fewer Conditions

10-Day Weather Forecast

Almanac

Astronomia

Aug. 20, 2014 Alba Tramonto
Ora attuale 06:23 CEST 20:02 CEST
Crepuscolo civile 05:54 CEST 20:32 CEST
Crepuscolo nautico 05:18 CEST 21:07 CEST
Crepuscolo astronomico 04:40 CEST 21:45 CEST
Luna 01:48 CEST 16:36 CEST
Estensione della luce visibile 14h 38m
Lunghezza del giorno
13h 39m
Tomorrow will be 2m 32s shorter.
Luna calante, 24% of the Moon is Illuminated
Oggi
Luna calante
Ago 25
Nuovo
Set 2
Primo quarto
Set 8
Luna piena
Set 15
Ultimo quarto

Minime e massime di ieri

Massime Regione Minime Regione

Community

WunderPhotos

Upload Photos

1,745,585 foto caricate!

Nearby

Qualità dell'aria

Not available.

Profondità neve

Not available.

Attività sismica

Città  Distanza Mag. Data & Ora
Non sono state riportate attività sismiche nelle vicinanze.
Minimo Magnitudo Mostrato è 2.5.

Temperature delle acque costiere

Località Temperatura
Nessun dato dalle stazioni

Stazioni meteo nelle vicinanze